Adana, ?ncirlik Air Base (LTAG)

Name?ncirlik Air Base
CityAdana
CountryTurkey
ICAOLTAG
IATAUAB
Altitude73 m
CoordinatesGoogle Map
Live Air TrafficLiveATC.net
METARLTAG 160250Z 36006KT CAVOK 10/04 Q1021 NOSIG
2018-12-16 02:50:00 Wind: North (360°) 3.09 m/s - Visibility: > 10000 m - Weather: CAVOK - Temperature: 10 °C - Dew point: 4 °C - Humidity: 66.6% - Pressure: 1021 hPa
Statistics

The table below shows the detailed information of all flights to/from Adana, ?ncirlik Air Base (LTAG).

Ident Aircraft Coming fromFrom Going toTo Owner nameOwnerSpotted durationDurationDate
RA-82046 - A124 - Volga-Dnepr Airlines VDA7059 ANTONOV An-124 Ruslan A124 Amman, Jordan (OJAI) OJAI
2940 km
Adana, Turkey (LTAG) LTAG
2446 km
Volga-dnepr Airlines Volga-dnepr Airlines 01:13:50 01:13:50 Sat, 15 Dec 2018 16:16:39 +0000 15/12/2018 4:16 pm
Sat, 15 Dec 2018 17:30:29 +0000 15/12/2018 5:30 pm
N642GT - B763 - Atlas Air GTI110 BOEING 767-300 B763 Hahn, Germany (EDFH) EDFH
6917 km
Adana, Turkey (LTAG) LTAG
9567 km
Polar Air Cargo Polar Air Cargo - - Sat, 01 Dec 2018 21:18:54 +0000 1/12/2018 9:18 pm
N642GT - B763 - Atlas Air GTI110 BOEING 767-300 B763 Hahn, Germany (EDFH) EDFH
6880 km
Adana, Turkey (LTAG) LTAG
9543 km
Polar Air Cargo Polar Air Cargo 00:03:56 00:03:56 Sat, 01 Dec 2018 20:38:08 +0000 1/12/2018 8:38 pm
Sat, 01 Dec 2018 20:42:04 +0000 1/12/2018 8:42 pm